Time;durP1;ratioP1;P1;durP2;ratioP2;P2;SDS_P1;SDS_P2;PMS_P1;PMS_P2;Temp;Humidity;BMP_temperature;BMP_pressure;BME280_temperature;BME280_humidity;BME280_pressure;Samples;Min_cycle;Max_cycle;Signal;HPM_P1;HPM_P2
2021/11/03 00:01:36;;;;;;;6.00;1.90;;;4.60;99.90;;;;;;5062206;28;20042;-77
2021/11/03 00:04:04;;;;;;;4.05;1.95;;;4.60;99.90;;;;;;5061001;28;20055;-77
2021/11/03 00:06:29;;;;;;;3.22;1.90;;;4.60;99.90;;;;;;5060832;28;20027;-77
2021/11/03 00:08:58;;;;;;;5.05;2.00;;;4.60;99.90;;;;;;5079424;28;20107;-77
2021/11/03 00:11:24;;;;;;;3.75;1.92;;;4.50;99.90;;;;;;5080103;28;20022;-77
2021/11/03 00:13:50;;;;;;;3.35;1.80;;;4.50;99.90;;;;;;5080161;28;20029;-77
2021/11/03 00:16:16;;;;;;;4.10;1.83;;;4.50;99.90;;;;;;5079273;28;20033;-77
2021/11/03 00:18:42;;;;;;;3.47;1.58;;;4.50;99.90;;;;;;5079763;28;20074;-77
2021/11/03 00:21:08;;;;;;;4.30;1.63;;;4.40;99.90;;;;;;5079637;28;20430;-77
2021/11/03 00:23:34;;;;;;;4.63;1.73;;;4.40;99.90;;;;;;5079195;28;20029;-77
2021/11/03 00:26:00;;;;;;;2.85;1.50;;;4.30;99.90;;;;;;5061810;28;20032;-77
2021/11/03 00:28:26;;;;;;;4.18;1.30;;;4.30;99.90;;;;;;5062218;28;20017;-77
2021/11/03 00:30:54;;;;;;;4.90;2.13;;;4.30;99.90;;;;;;5079766;28;20466;-77
2021/11/03 00:33:21;;;;;;;4.90;1.70;;;4.30;99.90;;;;;;5079893;28;20036;-77
2021/11/03 00:35:47;;;;;;;3.45;1.35;;;4.30;99.90;;;;;;5061701;28;20497;-77
2021/11/03 00:38:12;;;;;;;5.47;1.92;;;4.20;99.90;;;;;;5079249;28;20020;-77
2021/11/03 00:40:38;;;;;;;4.03;1.90;;;4.20;99.90;;;;;;5079420;28;20036;-77
2021/11/03 00:43:04;;;;;;;3.22;1.90;;;4.10;99.90;;;;;;5078940;28;20107;-77
2021/11/03 00:45:30;;;;;;;12.13;2.42;;;4.10;99.90;;;;;;5079058;28;20465;-76
2021/11/03 00:47:56;;;;;;;4.82;2.80;;;4.10;99.90;;;;;;5078913;28;20055;-76
2021/11/03 00:50:23;;;;;;;3.08;1.63;;;4.00;99.90;;;;;;5061134;28;20020;-76
2021/11/03 00:52:49;;;;;;;5.13;1.80;;;4.00;99.90;;;;;;5061031;28;20040;-76
2021/11/03 00:55:15;;;;;;;7.40;2.00;;;5.60;99.90;;;;;;5060492;28;20381;-76
2021/11/03 00:57:41;;;;;;;4.68;1.98;;;3.90;99.90;;;;;;5079357;28;20024;-76
2021/11/03 01:00:09;;;;;;;4.80;1.92;;;3.80;99.90;;;;;;5061987;28;20521;-76
2021/11/03 01:02:35;;;;;;;5.25;2.38;;;3.80;99.90;;;;;;5079291;28;20039;-76
2021/11/03 01:05:00;;;;;;;6.35;2.95;;;3.80;99.90;;;;;;5061092;28;20028;-76
2021/11/03 01:07:26;;;;;;;10.25;4.10;;;3.90;99.90;;;;;;5079954;28;20034;-76
2021/11/03 01:09:52;;;;;;;5.88;2.92;;;3.90;99.90;;;;;;5080079;28;20104;-76
2021/11/03 01:12:18;;;;;;;6.10;2.72;;;3.80;99.90;;;;;;5080326;28;20123;-76
2021/11/03 01:14:44;;;;;;;8.52;3.20;;;3.80;99.90;;;;;;5061995;28;20040;-75
2021/11/03 01:17:10;;;;;;;20.48;4.72;;;3.80;99.90;;;;;;5078862;28;20081;-75
2021/11/03 01:19:36;;;;;;;26.45;5.35;;;3.90;99.90;;;;;;5078630;28;20536;-76
2021/11/03 01:22:02;;;;;;;34.63;6.05;;;4.00;99.90;;;;;;5079065;28;20035;-75
2021/11/03 01:24:28;;;;;;;46.30;6.43;;;4.10;99.90;;;;;;5062525;28;20040;-76
2021/11/03 01:26:54;;;;;;;32.65;6.43;;;4.30;99.90;;;;;;5061859;28;20363;-76
2021/11/03 01:29:20;;;;;;;48.25;6.35;;;4.30;99.90;;;;;;5060878;28;20044;-76
2021/11/03 01:31:46;;;;;;;65.45;7.07;;;4.40;99.90;;;;;;5078637;28;20013;-76
2021/11/03 01:34:11;;;;;;;47.78;7.90;;;4.50;99.90;;;;;;5060624;28;20037;-75
2021/11/03 01:36:37;;;;;;;31.25;6.05;;;4.50;99.90;;;;;;5078920;28;20020;-76
2021/11/03 01:39:05;;;;;;;37.67;7.03;;;4.60;99.90;;;;;;5061552;28;20028;-76
2021/11/03 01:41:31;;;;;;;49.67;5.87;;;4.70;99.90;;;;;;5079769;28;20032;-76
2021/11/03 01:44:05;;;;;;;49.05;6.90;;;4.70;99.90;;;;;;5078682;28;20035;-76
2021/11/03 01:46:33;;;;;;;39.33;7.07;;;4.70;99.90;;;;;;5060949;28;20042;-76
2021/11/03 01:49:14;;;;;;;38.28;6.25;;;4.70;99.90;;;;;;5080437;28;20047;-76
2021/11/03 01:52:10;;;;;;;34.47;6.03;;;4.70;99.90;;;;;;5061368;28;20017;-76
2021/11/03 01:54:40;;;;;;;48.05;6.90;;;4.70;99.90;;;;;;5063808;28;20036;-76
2021/11/03 01:57:09;;;;;;;31.70;6.28;;;4.70;99.90;;;;;;5062932;28;20051;-75
2021/11/03 01:59:37;;;;;;;;;;;4.70;99.90;;;;;;5079901;28;20031;-76
2021/11/03 02:02:04;;;;;;;43.55;6.63;;;4.80;99.90;;;;;;5077980;28;20292;-76
2021/11/03 02:04:31;;;;;;;35.50;6.47;;;4.80;99.90;;;;;;5077576;28;20477;-76
2021/11/03 02:06:59;;;;;;;44.63;6.63;;;4.80;99.90;;;;;;5060767;28;20021;-76
2021/11/03 02:09:25;;;;;;;55.63;7.15;;;4.80;99.90;;;;;;5063409;28;20016;-76
2021/11/03 02:11:51;;;;;;;33.72;6.40;;;4.80;99.90;;;;;;5063969;28;20103;-76
2021/11/03 02:14:17;;;;;;;47.42;6.60;;;4.70;99.90;;;;;;5064294;28;20024;-76
2021/11/03 02:16:46;;;;;;;33.97;5.35;;;4.70;99.90;;;;;;5083022;28;20024;-76
2021/11/03 02:19:16;;;;;;;52.50;6.43;;;4.70;99.90;;;;;;5082890;28;20032;-77
2021/11/03 02:21:54;;;;;;;29.08;5.82;;;4.70;99.90;;;;;;5084819;28;20032;-77
2021/11/03 02:24:25;;;;;;;23.25;5.78;;;4.70;99.90;;;;;;5065511;28;20031;-77
2021/11/03 02:26:52;;;;;;;22.85;5.65;;;4.70;99.90;;;;;;5082228;28;20103;-76
2021/11/03 02:29:21;;;;;;;30.90;5.18;;;4.70;99.90;;;;;;5064714;28;20021;-76
2021/11/03 02:31:52;;;;;;;29.10;7.38;;;4.60;99.90;;;;;;5082808;28;20501;-77
2021/11/03 02:34:24;;;;;;;20.65;5.72;;;4.60;99.90;;;;;;5082502;28;20362;-76
2021/11/03 02:37:03;;;;;;;39.97;6.68;;;4.60;99.90;;;;;;5081545;28;20032;-76
2021/11/03 02:39:44;;;;;;;;;;;4.50;99.90;;;;;;5081867;28;20059;-76
2021/11/03 02:42:11;;;;;;;24.17;5.70;;;4.50;99.90;;;;;;5082281;28;19919;-76
2021/11/03 02:44:39;;;;;;;18.60;5.88;;;4.50;99.90;;;;;;5063414;28;20056;-76
2021/11/03 02:47:06;;;;;;;16.35;5.43;;;4.40;99.90;;;;;;5080910;28;20486;-76
2021/11/03 02:49:35;;;;;;;24.92;5.82;;;4.40;99.90;;;;;;5080395;28;20021;-76
2021/11/03 02:52:01;;;;;;;20.40;5.60;;;4.30;99.90;;;;;;5063270;28;20111;-77
2021/11/03 02:54:27;;;;;;;15.25;4.72;;;4.30;99.90;;;;;;5062854;28;20025;-76
2021/11/03 02:56:53;;;;;;;15.15;5.28;;;4.30;99.90;;;;;;5063447;28;20036;-75
2021/11/03 02:59:23;;;;;;;17.73;5.38;;;4.20;99.90;;;;;;5062592;28;20024;-75
2021/11/03 03:01:55;;;;;;;13.48;5.05;;;4.20;99.90;;;;;;5063204;28;20531;-75
2021/11/03 03:04:42;;;;;;;19.75;4.95;;;4.10;99.90;;;;;;5081571;28;20029;-75
2021/11/03 03:07:09;;;;;;;19.83;5.22;;;4.10;99.90;;;;;;5081919;28;20024;-75
2021/11/03 03:09:36;;;;;;;11.95;4.97;;;4.00;99.90;;;;;;5081531;28;20052;-75
2021/11/03 03:12:05;;;;;;;15.75;4.80;;;4.00;99.90;;;;;;5062129;28;20013;-75
2021/11/03 03:14:35;;;;;;;18.20;5.05;;;4.00;99.90;;;;;;5080870;28;20103;-75
2021/11/03 03:17:01;;;;;;;15.70;6.10;;;4.00;99.90;;;;;;5080052;28;20024;-76
2021/11/03 03:19:27;;;;;;;10.50;4.65;;;3.90;99.90;;;;;;5061189;28;20040;-76
2021/11/03 03:21:53;;;;;;;13.65;4.63;;;3.90;99.90;;;;;;5080308;28;20029;-77
2021/11/03 03:24:18;;;;;;;9.68;4.68;;;3.90;99.90;;;;;;5062396;28;20060;-77
2021/11/03 03:26:46;;;;;;;12.40;5.03;;;3.80;99.90;;;;;;5080695;28;20478;-77
2021/11/03 03:29:12;;;;;;;10.52;5.30;;;3.80;99.90;;;;;;5061853;28;20047;-76
2021/11/03 03:31:38;;;;;;;16.00;5.10;;;3.70;99.90;;;;;;5061920;28;20024;-76
2021/11/03 03:34:08;;;;;;;11.65;5.07;;;3.70;99.90;;;;;;5062117;28;20032;-76
2021/11/03 03:36:34;;;;;;;10.25;4.95;;;3.60;99.90;;;;;;5080971;28;20025;-76
2021/11/03 03:38:59;;;;;;;13.70;5.18;;;3.60;99.90;;;;;;5080138;28;20099;-76
2021/11/03 03:41:27;;;;;;;17.00;5.07;;;3.60;99.90;;;;;;5062168;28;20024;-76
2021/11/03 03:43:54;;;;;;;12.48;4.43;;;3.60;99.90;;;;;;5061967;28;20013;-76
2021/11/03 03:46:21;;;;;;;13.13;5.20;;;3.50;99.90;;;;;;5080144;28;20025;-76
2021/11/03 03:48:47;;;;;;;15.30;5.50;;;3.50;99.90;;;;;;5061684;28;20036;-76
2021/11/03 03:51:14;;;;;;;12.25;5.63;;;3.50;99.90;;;;;;5062060;28;20016;-76
2021/11/03 03:53:40;;;;;;;10.48;4.70;;;3.50;99.90;;;;;;5079664;28;20025;-76
2021/11/03 03:56:06;;;;;;;11.07;4.35;;;3.50;99.90;;;;;;5079193;28;20120;-76
2021/11/03 03:58:33;;;;;;;8.65;4.38;;;3.50;99.90;;;;;;5062391;28;20021;-75
2021/11/03 04:01:00;;;;;;;13.32;4.30;;;3.50;99.90;;;;;;5063064;28;20016;-75
2021/11/03 04:03:25;;;;;;;21.00;4.72;;;3.50;99.90;;;;;;5081622;28;20025;-76
2021/11/03 04:05:51;;;;;;;22.40;4.45;;;3.60;99.90;;;;;;5061621;28;20065;-76
2021/11/03 04:08:19;;;;;;;16.30;4.95;;;3.50;99.90;;;;;;5062023;28;20025;-76
2021/11/03 04:10:46;;;;;;;28.05;5.32;;;3.50;99.90;;;;;;5080104;28;20020;-76
2021/11/03 04:13:15;;;;;;;17.20;4.32;;;3.50;99.90;;;;;;5080417;28;20017;-76
2021/11/03 04:15:40;;;;;;;;;;;3.60;99.90;;;;;;5079733;28;20059;-76
2021/11/03 04:18:07;;;;;;;18.15;4.53;;;3.50;99.90;;;;;;5062779;28;19904;-75
2021/11/03 04:20:32;;;;;;;14.52;4.90;;;3.50;99.90;;;;;;5062041;28;20021;-75
2021/11/03 04:22:58;;;;;;;23.70;6.10;;;3.50;99.90;;;;;;5061871;28;20024;-75
2021/11/03 04:25:24;;;;;;;22.17;5.63;;;3.50;99.90;;;;;;5079707;28;20462;-75
2021/11/03 04:27:49;;;;;;;16.05;4.80;;;3.50;99.90;;;;;;5080153;28;20024;-75
2021/11/03 04:30:17;;;;;;;12.07;4.90;;;3.50;99.90;;;;;;5079231;28;20469;-75
2021/11/03 04:32:44;;;;;;;20.00;5.75;;;3.50;99.90;;;;;;5078325;28;20028;-75
2021/11/03 04:35:10;;;;;;;16.10;5.00;;;3.50;99.90;;;;;;5061123;28;20499;-75
2021/11/03 04:37:38;;;;;;;19.67;5.93;;;3.60;99.90;;;;;;5079232;28;20111;-76
2021/11/03 04:40:06;;;;;;;25.88;5.45;;;3.60;99.90;;;;;;5061710;28;20028;-76
2021/11/03 04:42:32;;;;;;;35.00;6.10;;;3.60;99.90;;;;;;5079412;28;20028;-75
2021/11/03 04:44:58;;;;;;;38.40;5.40;;;3.70;99.90;;;;;;5079083;28;20035;-75
2021/11/03 04:47:23;;;;;;;44.25;6.90;;;3.70;99.90;;;;;;5061271;28;20017;-76
2021/11/03 04:49:49;;;;;;;40.17;6.53;;;3.70;99.90;;;;;;5078410;28;20024;-76
2021/11/03 04:52:14;;;;;;;40.38;6.07;;;3.70;99.90;;;;;;5061218;28;20015;-76
2021/11/03 04:54:40;;;;;;;29.33;6.47;;;3.80;99.90;;;;;;5061294;28;20029;-76
2021/11/03 04:57:07;;;;;;;27.17;6.32;;;3.80;99.90;;;;;;5060882;28;20074;-76
2021/11/03 04:59:32;;;;;;;19.48;6.10;;;3.80;99.90;;;;;;5061798;28;20025;-76
2021/11/03 05:01:58;;;;;;;31.27;5.65;;;3.80;99.90;;;;;;5060952;28;20024;-76
2021/11/03 05:04:24;;;;;;;17.13;5.38;;;3.80;99.90;;;;;;5061347;28;20025;-76
2021/11/03 05:06:49;;;;;;;16.88;5.85;;;3.90;99.90;;;;;;5078697;28;20039;-76
2021/11/03 05:09:17;;;;;;;14.82;5.05;;;3.90;99.90;;;;;;5060549;28;20013;-76
2021/11/03 05:11:43;;;;;;;20.20;6.00;;;3.90;99.90;;;;;;5061912;28;20027;-75
2021/11/03 05:14:10;;;;;;;22.63;5.38;;;3.90;99.90;;;;;;5061536;28;20017;-75
2021/11/03 05:16:36;;;;;;;22.90;5.22;;;3.90;99.90;;;;;;5061342;28;20040;-75
2021/11/03 05:19:03;;;;;;;22.95;5.50;;;3.90;99.90;;;;;;5078895;28;20070;-74
2021/11/03 05:21:29;;;;;;;15.38;5.75;;;3.90;99.90;;;;;;5078999;28;20017;-75
2021/11/03 05:23:55;;;;;;;13.70;5.13;;;3.90;99.90;;;;;;5079044;28;20490;-75
2021/11/03 05:26:24;;;;;;;22.15;5.43;;;3.90;99.90;;;;;;5078170;28;20099;-74
2021/11/03 05:28:53;;;;;;;8.23;4.25;;;3.90;99.90;;;;;;5078434;28;20013;-76
2021/11/03 05:31:19;;;;;;;18.63;5.57;;;3.90;99.90;;;;;;5078548;28;20020;-77
2021/11/03 05:33:45;;;;;;;14.57;4.70;;;3.90;99.90;;;;;;5078538;28;20474;-76
2021/11/03 05:36:17;;;;;;;18.17;5.45;;;3.90;99.90;;;;;;5061277;28;20020;-77
2021/11/03 05:38:42;;;;;;;14.63;5.80;;;3.90;99.90;;;;;;5061500;28;20032;-76
2021/11/03 05:41:08;;;;;;;14.98;6.35;;;3.80;99.90;;;;;;5078375;28;20021;-76
2021/11/03 05:43:33;;;;;;;15.60;5.38;;;3.80;99.90;;;;;;5081180;28;20025;-76
2021/11/03 05:45:59;;;;;;;11.75;5.78;;;3.80;99.90;;;;;;5082066;28;20020;-76
2021/11/03 05:48:27;;;;;;;21.55;5.88;;;3.80;99.90;;;;;;5063628;28;20028;-76
2021/11/03 05:50:53;;;;;;;19.27;5.18;;;3.80;99.90;;;;;;5047529;28;20123;-76
2021/11/03 05:53:18;;;;;;;19.38;5.88;;;3.80;99.90;;;;;;5065114;28;20048;-76
2021/11/03 05:55:45;;;;;;;20.63;5.97;;;3.80;99.90;;;;;;5082587;28;20017;-76
2021/11/03 05:58:10;;;;;;;31.55;5.97;;;3.80;99.90;;;;;;5081423;28;20080;-77
2021/11/03 06:00:38;;;;;;;23.35;5.63;;;3.80;99.90;;;;;;5063358;28;20449;-77
2021/11/03 06:03:04;;;;;;;36.67;5.60;;;3.80;99.90;;;;;;5063545;28;20531;-76
2021/11/03 06:05:30;;;;;;;17.55;5.93;;;3.80;99.90;;;;;;5081479;28;20024;-76
2021/11/03 06:08:00;;;;;;;23.95;5.78;;;3.80;99.90;;;;;;5063315;28;20021;-76
2021/11/03 06:10:36;;;;;;;24.52;5.63;;;3.80;99.90;;;;;;5063451;28;20031;-77
2021/11/03 06:13:02;;;;;;;35.92;6.65;;;3.80;99.90;;;;;;5082174;28;20035;-77
2021/11/03 06:15:28;;;;;;;25.42;6.68;;;3.80;99.90;;;;;;5063590;28;20461;-77
2021/11/03 06:17:55;;;;;;;46.88;6.28;;;3.80;99.90;;;;;;5080896;28;20028;-77
2021/11/03 06:20:21;;;;;;;45.90;6.68;;;3.80;99.90;;;;;;5081823;28;20487;-77
2021/11/03 06:22:47;;;;;;;33.85;7.70;;;3.90;99.90;;;;;;5080455;28;20374;-77
2021/11/03 06:25:14;;;;;;;43.20;8.25;;;3.80;99.90;;;;;;5080976;28;20032;-77
2021/11/03 06:27:40;;;;;;;78.78;6.93;;;3.80;99.90;;;;;;5063306;28;20021;-77
2021/11/03 06:30:08;;;;;;;41.17;6.00;;;3.80;99.90;;;;;;5062612;28;20035;-77
2021/11/03 06:32:35;;;;;;;51.15;6.22;;;3.80;99.90;;;;;;5062823;28;20024;-76
2021/11/03 06:35:05;;;;;;;41.58;6.65;;;3.80;99.90;;;;;;5081190;28;20043;-77
2021/11/03 06:37:31;;;;;;;75.53;8.52;;;3.80;99.90;;;;;;5062490;28;20107;-75
2021/11/03 06:39:57;;;;;;;41.92;6.75;;;3.90;99.90;;;;;;5063449;28;20086;-75
2021/11/03 06:42:22;;;;;;;54.45;7.60;;;3.90;99.90;;;;;;5079989;28;20067;-74
2021/11/03 06:44:48;;;;;;;63.88;6.78;;;3.90;99.90;;;;;;5079837;28;20025;-74
2021/11/03 06:47:14;;;;;;;45.80;5.90;;;3.90;99.90;;;;;;5062194;28;20025;-74
2021/11/03 06:49:40;;;;;;;39.58;5.95;;;3.90;99.90;;;;;;5080502;28;20051;-74
2021/11/03 06:52:06;;;;;;;33.60;6.70;;;3.90;99.90;;;;;;5062000;28;20021;-74
2021/11/03 06:54:33;;;;;;;52.13;7.22;;;3.90;99.90;;;;;;5079121;28;20028;-74
2021/11/03 06:56:58;;;;;;;69.18;6.57;;;3.90;99.90;;;;;;5080658;28;20031;-73
2021/11/03 06:59:24;;;;;;;51.40;6.97;;;3.90;99.90;;;;;;5080537;28;20456;-75
2021/11/03 07:01:50;;;;;;;42.00;5.70;;;3.90;99.90;;;;;;5062179;28;20032;-75
2021/11/03 07:04:18;;;;;;;41.35;6.20;;;3.90;99.90;;;;;;5080256;28;20474;-78
2021/11/03 07:06:44;;;;;;;42.92;5.78;;;3.80;99.90;;;;;;5061924;28;20473;-77
2021/11/03 07:09:10;;;;;;;54.72;6.78;;;3.80;99.90;;;;;;5062206;28;20066;-76
2021/11/03 07:11:35;;;;;;;42.10;5.68;;;3.80;99.90;;;;;;5080075;28;20032;-76
2021/11/03 07:14:01;;;;;;;42.08;6.88;;;3.80;99.90;;;;;;5080196;28;20024;-76
2021/11/03 07:16:27;;;;;;;26.13;6.43;;;3.80;99.90;;;;;;5062374;28;20111;-75
2021/11/03 07:18:53;;;;;;;32.88;6.55;;;3.80;99.90;;;;;;5080466;28;20025;-75
2021/11/03 07:21:18;;;;;;;25.50;5.07;;;3.80;99.90;;;;;;5080382;28;20048;-76
2021/11/03 07:23:44;;;;;;;20.50;5.07;;;3.80;99.90;;;;;;5080029;28;20050;-76
2021/11/03 07:26:11;;;;;;;23.63;5.20;;;3.80;99.90;;;;;;5061649;28;20052;-77
2021/11/03 07:28:40;;;;;;;26.83;5.53;;;3.80;99.90;;;;;;5061794;28;20206;-76
2021/11/03 07:31:06;;;;;;;23.15;5.40;;;3.70;99.90;;;;;;5081792;28;20104;-76
2021/11/03 07:33:32;;;;;;;17.17;4.70;;;3.70;99.90;;;;;;5074757;28;20033;-76
2021/11/03 07:35:59;;;;;;;27.48;4.97;;;3.70;99.90;;;;;;5074700;28;20478;-77
2021/11/03 07:38:24;;;;;;;15.15;5.25;;;3.70;99.90;;;;;;5060763;28;20028;-77
2021/11/03 07:40:54;;;;;;;19.00;4.43;;;3.60;99.90;;;;;;5080324;28;20025;-77
2021/11/03 07:43:22;;;;;;;25.80;5.32;;;3.70;99.90;;;;;;5079800;28;20096;-77
2021/11/03 07:45:50;;;;;;;33.00;5.27;;;3.70;99.90;;;;;;5061450;28;20486;-77
2021/11/03 07:48:17;;;;;;;14.68;3.72;;;3.60;99.90;;;;;;5078694;28;20031;-77
2021/11/03 07:50:48;;;;;;;24.83;4.75;;;3.70;99.90;;;;;;5061759;28;20089;-77
2021/11/03 07:53:14;;;;;;;32.97;5.50;;;3.60;99.90;;;;;;5079651;28;20036;-77
2021/11/03 07:55:44;;;;;;;23.08;5.00;;;3.60;99.90;;;;;;5079244;28;20029;-77
2021/11/03 07:58:16;;;;;;;21.77;4.70;;;3.70;99.90;;;;;;5079891;28;20025;-77
2021/11/03 08:00:41;;;;;;;13.35;5.05;;;3.70;99.90;;;;;;5080249;28;20086;-77
2021/11/03 08:03:08;;;;;;;26.15;5.75;;;3.70;99.90;;;;;;5061789;28;20028;-77
2021/11/03 08:05:34;;;;;;;25.23;5.80;;;3.70;99.90;;;;;;5078596;28;20029;-77
2021/11/03 08:08:07;;;;;;;21.77;5.50;;;3.80;99.90;;;;;;5079328;28;20040;-77
2021/11/03 08:10:32;;;;;;;15.93;5.68;;;3.80;99.90;;;;;;5061494;28;20025;-77
2021/11/03 08:12:58;;;;;;;14.80;5.90;;;3.90;99.90;;;;;;5060797;28;20492;-76
2021/11/03 08:15:26;;;;;;;29.38;6.20;;;4.00;99.90;;;;;;5061621;28;20074;-77
2021/11/03 08:17:54;;;;;;;26.30;5.70;;;4.00;99.90;;;;;;5061668;28;20424;-77
2021/11/03 08:20:25;;;;;;;25.77;6.18;;;4.00;99.90;;;;;;5080788;28;20052;-77
2021/11/03 08:22:54;;;;;;;35.63;6.50;;;4.10;99.90;;;;;;5077602;28;20028;-77
2021/11/03 08:25:21;;;;;;;21.35;5.85;;;4.20;99.90;;;;;;5078418;28;20536;-76
2021/11/03 08:27:46;;;;;;;19.65;6.70;;;4.30;99.90;;;;;;5077168;28;20059;-77
2021/11/03 08:30:13;;;;;;;17.92;7.20;;;4.30;99.90;;;;;;5079038;28;20024;-76
2021/11/03 08:32:56;;;;;;;14.73;6.75;;;4.40;99.90;;;;;;5060821;28;20528;-76
2021/11/03 08:35:25;;;;;;;16.55;6.95;;;4.50;99.90;;;;;;5077924;28;20024;-77
2021/11/03 08:37:52;;;;;;;17.02;7.10;;;4.60;99.90;;;;;;5059835;28;20401;-77
2021/11/03 08:40:21;;;;;;;15.88;6.57;;;4.70;99.90;;;;;;5060015;28;20024;-77
2021/11/03 08:42:47;;;;;;;29.17;7.25;;;4.90;99.90;;;;;;5060113;28;20024;-77
2021/11/03 08:45:13;;;;;;;22.10;7.07;;;5.00;99.90;;;;;;5078441;28;20021;-77
2021/11/03 08:47:41;;;;;;;19.33;6.35;;;5.00;99.90;;;;;;5078356;28;20027;-77
2021/11/03 08:50:10;;;;;;;17.30;7.70;;;5.10;99.90;;;;;;5060164;28;20016;-77
2021/11/03 08:52:36;;;;;;;20.10;8.18;;;5.20;99.90;;;;;;5059766;28;20012;-78
2021/11/03 08:55:02;;;;;;;19.67;7.72;;;5.20;99.90;;;;;;5077746;28;20370;-77
2021/11/03 08:57:28;;;;;;;21.42;8.07;;;5.30;99.90;;;;;;5059443;28;20025;-77
2021/11/03 08:59:55;;;;;;;41.35;7.88;;;5.30;99.90;;;;;;5077515;28;20078;-77
2021/11/03 09:02:22;;;;;;;20.63;7.93;;;5.40;99.90;;;;;;5059892;28;20405;-77
2021/11/03 09:04:48;;;;;;;22.90;8.35;;;5.40;99.90;;;;;;5059896;28;20501;-77
2021/11/03 09:07:14;;;;;;;22.88;8.77;;;5.50;99.90;;;;;;5077709;28;20025;-78
2021/11/03 09:09:45;;;;;;;18.88;8.98;;;5.70;99.90;;;;;;5059625;28;20512;-77
2021/11/03 09:12:11;;;;;;;18.73;8.30;;;5.80;99.90;;;;;;5060288;28;20595;-77
2021/11/03 09:14:36;;;;;;;34.70;9.25;;;5.90;99.90;;;;;;5079260;28;20057;-79
2021/11/03 09:17:03;;;;;;;20.33;7.95;;;6.00;99.90;;;;;;5081629;28;20040;-79
2021/11/03 09:19:29;;;;;;;20.08;8.93;;;6.10;99.90;;;;;;5066169;28;20023;-79
2021/11/03 09:21:55;;;;;;;18.10;8.43;;;6.20;99.90;;;;;;5083656;28;20080;-78
2021/11/03 09:24:20;;;;;;;20.70;9.10;;;6.40;99.90;;;;;;5067500;28;20033;-78
2021/11/03 09:26:46;;;;;;;19.30;7.93;;;6.50;99.90;;;;;;5078053;28;20091;-77
2021/11/03 09:29:12;;;;;;;47.20;7.57;;;6.60;99.90;;;;;;5059096;28;20477;-78
2021/11/03 09:31:39;;;;;;;17.67;7.93;;;6.70;99.90;;;;;;5077034;28;20025;-76
2021/11/03 09:34:06;;;;;;;23.75;7.53;;;6.70;99.90;;;;;;5077102;28;20035;-78
2021/11/03 09:36:32;;;;;;;27.65;7.28;;;6.80;99.90;;;;;;5059070;28;20030;-78
2021/11/03 09:38:58;;;;;;;22.17;8.20;;;6.90;99.90;;;;;;5059462;28;20397;-77
2021/11/03 09:41:30;;;;;;;17.65;8.70;;;6.90;99.90;;;;;;5059111;28;20028;-78
2021/11/03 09:44:00;;;;;;;19.67;9.45;;;7.00;99.90;;;;;;5077983;28;20028;-80
2021/11/03 09:46:50;;;;;;;33.30;9.90;;;7.10;99.90;;;;;;5077138;28;20023;-79
2021/11/03 09:49:19;;;;;;;25.27;9.60;;;7.20;99.90;;;;;;5075979;28;20035;-79
2021/11/03 09:51:48;;;;;;;26.13;10.18;;;7.30;99.90;;;;;;5076955;28;20386;-80
2021/11/03 09:54:21;;;;;;;26.08;11.35;;;7.40;99.90;;;;;;5060580;28;20036;-79
2021/11/03 09:56:54;;;;;;;31.08;11.23;;;7.50;99.90;;;;;;5059050;28;20020;-79
2021/11/03 09:59:40;;;;;;;30.80;12.88;;;7.60;99.90;;;;;;5077084;28;20465;-80
2021/11/03 10:02:11;;;;;;;27.70;12.20;;;7.50;99.90;;;;;;5076411;28;20078;-77
2021/11/03 10:04:58;;;;;;;28.92;11.65;;;7.50;99.90;;;;;;5076225;28;20032;-77
2021/11/03 10:07:45;;;;;;;28.08;12.55;;;7.40;99.90;;;;;;5058230;28;20039;-77
2021/11/03 10:10:19;;;;;;;31.50;13.20;;;7.40;99.90;;;;;;5076778;28;20049;-77
2021/11/03 10:12:45;;;;;;;32.88;13.77;;;7.30;99.90;;;;;;5076051;28;20024;-78
2021/11/03 10:15:11;;;;;;;31.20;14.27;;;7.40;99.90;;;;;;5076176;28;20158;-76
2021/11/03 10:17:36;;;;;;;30.80;13.10;;;8.30;99.90;;;;;;5076036;28;20056;-76
2021/11/03 10:20:18;;;;;;;30.67;13.45;;;7.40;99.90;;;;;;5076130;28;20383;-76
2021/11/03 10:22:43;;;;;;;31.67;14.25;;;7.30;99.90;;;;;;5058166;28;20021;-77
2021/11/03 10:25:13;;;;;;;31.80;14.57;;;7.40;99.90;;;;;;5076052;28;20059;-76
2021/11/03 10:27:47;;;;;;;30.60;13.88;;;7.40;99.90;;;;;;5075996;28;20025;-77
2021/11/03 10:30:32;;;;;;;32.92;13.13;;;7.40;99.90;;;;;;5076107;28;20113;-76
2021/11/03 10:33:16;;;;;;;34.65;14.40;;;7.30;99.90;;;;;;5075717;28;20505;-76
2021/11/03 10:36:19;;;;;;;36.92;15.38;;;7.30;99.90;;;;;;5057866;28;20497;-76
2021/11/03 10:38:55;;;;;;;37.97;14.98;;;7.30;99.90;;;;;;5053103;28;20085;-76
2021/11/03 10:41:30;;;;;;;39.33;16.42;;;7.30;99.90;;;;;;5075810;28;20028;-77
2021/11/03 10:44:07;;;;;;;34.45;13.63;;;7.40;99.90;;;;;;5075766;28;20489;-76
2021/11/03 10:46:53;;;;;;;33.75;14.98;;;7.50;99.90;;;;;;5057704;28;20543;-77
2021/11/03 10:49:34;;;;;;;43.38;13.98;;;7.60;99.90;;;;;;5057625;28;20024;-76
2021/11/03 10:52:09;;;;;;;41.72;14.52;;;7.80;99.90;;;;;;5041464;28;20496;-77
2021/11/03 10:54:50;;;;;;;34.03;14.57;;;8.00;99.90;;;;;;5075754;28;20025;-77
2021/11/03 10:57:22;;;;;;;31.17;12.70;;;8.10;99.90;;;;;;5060814;28;20025;-76
2021/11/03 11:00:04;;;;;;;34.72;13.95;;;8.20;99.90;;;;;;5068697;28;20534;-77
2021/11/03 11:02:31;;;;;;;33.63;13.07;;;8.30;99.90;;;;;;5086887;28;20583;-74
2021/11/03 11:05:02;;;;;;;31.50;13.90;;;8.30;99.90;;;;;;5072514;28;20024;-76
2021/11/03 11:07:38;;;;;;;32.95;13.68;;;8.40;99.90;;;;;;5084321;28;20470;-73
2021/11/03 11:10:18;;;;;;;37.10;13.93;;;8.40;99.90;;;;;;5085490;28;20075;-76
2021/11/03 11:12:47;;;;;;;34.75;14.13;;;8.40;99.90;;;;;;5086215;28;20005;-76
2021/11/03 11:15:15;;;;;;;;;;;8.30;99.90;;;;;;5081945;28;20028;-74
2021/11/03 11:17:52;;;;;;;33.78;14.05;;;8.30;99.90;;;;;;5057175;28;20349;-75
2021/11/03 11:20:35;;;;;;;31.77;14.27;;;8.20;99.90;;;;;;5056491;28;20170;-76
2021/11/03 11:23:09;;;;;;;31.75;13.77;;;8.10;99.90;;;;;;5057980;28;20032;-74
2021/11/03 11:25:59;;;;;;;36.50;15.82;;;8.10;99.90;;;;;;5074759;28;20409;-74
2021/11/03 11:28:34;;;;;;;34.05;14.38;;;8.10;99.90;;;;;;5074554;28;20103;-75
2021/11/03 11:31:18;;;;;;;35.90;15.15;;;8.10;99.90;;;;;;5056316;28;20028;-75
2021/11/03 11:34:01;;;;;;;32.28;14.00;;;8.10;99.90;;;;;;5077914;28;20051;-76
2021/11/03 11:36:53;;;;;;;33.17;14.75;;;8.10;99.90;;;;;;5083991;28;20004;-77
2021/11/03 11:39:22;;;;;;;31.48;14.32;;;8.20;99.90;;;;;;5065864;28;20020;-75
2021/11/03 11:41:55;;;;;;;33.08;15.05;;;8.30;99.90;;;;;;5073580;28;20048;-77
2021/11/03 11:44:26;;;;;;;36.38;15.30;;;8.20;99.90;;;;;;5084810;28;20070;-78
2021/11/03 11:46:55;;;;;;;37.20;14.93;;;8.40;99.90;;;;;;5090170;28;20016;-77
2021/11/03 11:49:26;;;;;;;31.92;13.75;;;8.30;99.90;;;;;;5061795;28;20047;-76
2021/11/03 11:51:56;;;;;;;35.30;14.95;;;8.40;99.90;;;;;;5074465;28;20115;-76
2021/11/03 11:54:27;;;;;;;32.53;15.18;;;8.50;99.90;;;;;;5073120;28;20074;-75
2021/11/03 11:57:19;;;;;;;35.78;14.60;;;8.60;99.90;;;;;;5073411;28;20036;-75
2021/11/03 12:00:03;;;;;;;32.63;14.02;;;8.70;99.90;;;;;;5085753;28;20039;-76
2021/11/03 12:02:33;;;;;;;28.38;13.57;;;8.80;99.90;;;;;;5085777;28;20016;-77
2021/11/03 12:05:20;;;;;;;33.50;13.38;;;8.90;99.90;;;;;;5085647;28;20107;-77
2021/11/03 12:08:17;;;;;;;28.17;13.27;;;9.10;99.90;;;;;;5070781;28;20056;-76
2021/11/03 12:10:55;;;;;;;33.47;14.23;;;9.20;99.90;;;;;;5088890;28;20027;-76
2021/11/03 12:13:30;;;;;;;35.88;14.95;;;9.30;99.90;;;;;;5072559;28;20032;-76
2021/11/03 12:15:55;;;;;;;29.33;13.70;;;9.30;99.90;;;;;;5085091;28;20044;-76
2021/11/03 12:18:24;;;;;;;33.45;15.32;;;9.30;99.90;;;;;;5079083;28;20091;-76
2021/11/03 12:21:01;;;;;;;30.20;14.30;;;9.40;99.90;;;;;;5080620;28;20024;-76
2021/11/03 12:24:15;;;;;;;30.75;13.35;;;9.50;99.90;;;;;;5063362;28;20399;-76
2021/11/03 12:26:45;;;;;;;32.38;13.90;;;9.50;99.90;;;;;;5061739;28;20040;-76
2021/11/03 12:29:17;;;;;;;30.58;14.23;;;9.60;99.90;;;;;;5063916;28;20028;-75
2021/11/03 12:31:43;;;;;;;37.03;15.93;;;9.70;99.90;;;;;;5060229;28;20039;-76
2021/11/03 12:34:08;;;;;;;33.58;14.55;;;9.70;99.90;;;;;;5059969;28;20056;-76
2021/11/03 12:36:49;;;;;;;28.17;12.98;;;9.80;99.90;;;;;;5077883;28;20028;-76
2021/11/03 12:39:29;;;;;;;28.13;13.30;;;9.80;99.90;;;;;;5079258;28;20050;-76
2021/11/03 12:42:18;;;;;;;31.92;13.20;;;9.90;99.90;;;;;;5068729;28;20029;-75
2021/11/03 12:44:45;;;;;;;28.63;13.05;;;9.90;99.90;;;;;;5069777;28;20029;-75
2021/11/03 12:47:18;;;;;;;27.08;13.30;;;10.00;99.90;;;;;;5079294;28;20024;-75
2021/11/03 12:49:57;;;;;;;30.83;13.77;;;10.10;99.90;;;;;;5059410;28;20027;-73
2021/11/03 12:52:26;;;;;;;30.15;13.40;;;10.20;99.90;;;;;;5059013;28;20024;-75
2021/11/03 12:54:53;;;;;;;30.45;13.18;;;10.20;99.90;;;;;;5078284;28;20028;-75
2021/11/03 12:57:25;;;;;;;25.35;12.65;;;10.30;99.90;;;;;;5078321;28;20017;-74